Time;durP1;ratioP1;P1;durP2;ratioP2;P2;SDS_P1;SDS_P2;PMS_P1;PMS_P2;Temp;Humidity;BMP_temperature;BMP_pressure;BME280_temperature;BME280_humidity;BME280_pressure;Samples;Min_cycle;Max_cycle;Signal;HPM_P1;HPM_P2
2022/08/17 00:00:34;;;;;;;9.90;5.25;;;18.70;67.80;;;;;;4880428;29;20029;-79
2022/08/17 00:02:59;;;;;;;8.10;5.07;;;18.70;68.00;;;;;;4880238;29;20484;-80
2022/08/17 00:05:26;;;;;;;7.22;4.55;;;18.60;67.90;;;;;;4879831;29;20063;-80
2022/08/17 00:07:52;;;;;;;6.47;4.97;;;18.70;67.80;;;;;;4879908;29;20044;-79
2022/08/17 00:10:18;;;;;;;6.53;5.03;;;18.70;67.70;;;;;;4880076;29;20040;-79
2022/08/17 00:12:44;;;;;;;10.48;5.55;;;18.80;67.30;;;;;;4879929;29;20085;-80
2022/08/17 00:15:12;;;;;;;5.30;4.47;;;18.80;66.90;;;;;;4878627;29;20089;-79
2022/08/17 00:17:38;;;;;;;5.55;4.63;;;18.90;66.90;;;;;;4879923;29;20040;-80
2022/08/17 00:20:04;;;;;;;7.50;4.70;;;18.90;66.70;;;;;;4879855;29;20052;-80
2022/08/17 00:22:30;;;;;;;6.40;4.78;;;19.00;66.20;;;;;;4879746;29;20116;-80
2022/08/17 00:24:55;;;;;;;5.05;4.55;;;19.00;66.00;;;;;;4879801;29;20593;-78
2022/08/17 00:27:21;;;;;;;6.28;4.63;;;19.10;65.60;;;;;;4879885;29;20029;-79
2022/08/17 00:29:47;;;;;;;5.22;4.35;;;19.10;65.40;;;;;;4879822;29;20025;-78
2022/08/17 00:32:13;;;;;;;4.80;4.30;;;19.00;65.30;;;;;;4879846;29;20100;-78
2022/08/17 00:34:38;;;;;;;7.07;4.30;;;19.10;65.30;;;;;;4879748;29;20029;-78
2022/08/17 00:37:04;;;;;;;8.63;4.35;;;19.10;65.20;;;;;;4879697;29;20040;-78
2022/08/17 00:39:29;;;;;;;6.18;4.97;;;19.00;65.00;;;;;;4879494;29;20052;-78
2022/08/17 00:41:55;;;;;;;7.35;4.75;;;18.90;65.80;;;;;;4879572;29;20022;-78
2022/08/17 00:44:21;;;;;;;9.98;5.15;;;18.80;66.00;;;;;;4879022;29;20057;-78
2022/08/17 00:46:46;;;;;;;6.28;5.13;;;18.70;66.20;;;;;;4879600;29;20077;-79
2022/08/17 00:49:14;;;;;;;8.27;5.13;;;18.60;66.60;;;;;;4879608;29;20497;-79
2022/08/17 00:51:48;;;;;;;12.68;5.10;;;18.50;67.30;;;;;;4879515;29;20044;-80
2022/08/17 00:54:25;;;;;;;8.93;5.85;;;18.30;68.00;;;;;;4879575;29;20111;-79
2022/08/17 00:57:05;;;;;;;9.13;5.65;;;18.30;68.40;;;;;;4878472;29;20101;-78
2022/08/17 00:59:36;;;;;;;5.38;4.70;;;18.20;68.60;;;;;;4879461;29;20097;-78
2022/08/17 01:02:03;;;;;;;7.43;5.00;;;18.20;68.70;;;;;;4879656;29;20379;-78
2022/08/17 01:04:30;;;;;;;7.95;5.45;;;18.20;68.40;;;;;;4879353;29;20124;-78
2022/08/17 01:06:57;;;;;;;5.78;4.93;;;18.20;68.10;;;;;;4879311;29;20036;-78
2022/08/17 01:09:23;;;;;;;6.80;4.93;;;18.30;68.00;;;;;;4879632;29;20044;-78
2022/08/17 01:11:51;;;;;;;6.03;4.32;;;18.20;67.90;;;;;;4879361;29;20021;-78
2022/08/17 01:14:19;;;;;;;9.85;5.05;;;18.20;68.10;;;;;;4879278;29;20025;-78
2022/08/17 01:16:47;;;;;;;8.25;5.10;;;18.20;68.20;;;;;;4879266;29;20465;-80
2022/08/17 01:19:19;;;;;;;5.57;4.97;;;18.20;68.00;;;;;;4879216;29;20051;-78
2022/08/17 01:21:59;;;;;;;5.93;4.70;;;18.30;67.80;;;;;;4879370;29;20053;-78
2022/08/17 01:24:25;;;;;;;8.77;5.03;;;18.30;67.50;;;;;;4899309;29;20029;-77
2022/08/17 01:26:50;;;;;;;6.28;4.88;;;18.30;67.30;;;;;;4892394;29;20033;-78
2022/08/17 01:29:17;;;;;;;7.05;4.95;;;18.40;67.40;;;;;;4898020;29;20044;-77
2022/08/17 01:31:53;;;;;;;6.10;5.03;;;18.40;67.40;;;;;;4888172;29;20033;-78
2022/08/17 01:34:20;;;;;;;8.38;5.03;;;18.40;67.30;;;;;;4879406;29;20029;-78
2022/08/17 01:36:48;;;;;;;7.32;4.05;;;18.40;67.50;;;;;;4877751;29;20036;-78
2022/08/17 01:39:35;;;;;;;6.53;4.50;;;18.40;67.40;;;;;;4879170;29;20428;-78
2022/08/17 01:42:30;;;;;;;8.73;4.57;;;18.50;67.20;;;;;;4879085;29;20025;-79
2022/08/17 01:45:00;;;;;;;6.40;4.43;;;18.60;67.00;;;;;;4874626;29;20169;-79
2022/08/17 01:47:25;;;;;;;6.82;4.60;;;18.60;66.70;;;;;;4879021;29;20033;-79
2022/08/17 01:49:51;;;;;;;5.22;4.35;;;18.60;66.50;;;;;;4878920;29;20025;-79
2022/08/17 01:52:17;;;;;;;5.07;4.47;;;18.60;66.50;;;;;;4879077;29;20021;-79
2022/08/17 01:54:46;;;;;;;5.60;4.32;;;18.60;66.40;;;;;;4879058;29;20035;-79
2022/08/17 01:57:12;;;;;;;7.63;4.80;;;18.50;66.60;;;;;;4880495;29;20017;-79
2022/08/17 01:59:38;;;;;;;4.40;4.00;;;18.50;66.50;;;;;;4882296;29;20152;-80
2022/08/17 02:02:06;;;;;;;6.90;4.47;;;18.50;66.70;;;;;;4882288;29;20025;-79
2022/08/17 02:04:32;;;;;;;5.90;4.40;;;18.50;66.80;;;;;;4882236;29;20053;-79
2022/08/17 02:06:57;;;;;;;4.13;3.72;;;18.60;66.80;;;;;;4882256;29;20021;-78
2022/08/17 02:09:26;;;;;;;5.63;4.22;;;18.70;66.90;;;;;;4882229;29;20037;-79
2022/08/17 02:11:53;;;;;;;5.30;4.35;;;18.70;66.80;;;;;;4882119;29;20085;-78
2022/08/17 02:14:18;;;;;;;5.22;4.05;;;18.80;66.70;;;;;;4882152;29;20033;-78
2022/08/17 02:16:44;;;;;;;5.53;4.80;;;18.80;66.60;;;;;;4882009;29;20033;-78
2022/08/17 02:19:14;;;;;;;5.47;4.70;;;18.70;66.40;;;;;;4881810;29;20048;-78
2022/08/17 02:21:42;;;;;;;6.13;4.57;;;18.70;66.60;;;;;;4881867;29;20026;-78
2022/08/17 02:24:12;;;;;;;5.43;3.78;;;18.70;66.30;;;;;;4881933;29;20441;-80
2022/08/17 02:26:37;;;;;;;6.50;4.35;;;18.80;66.00;;;;;;4882001;29;20131;-80
2022/08/17 02:29:03;;;;;;;6.28;5.20;;;18.80;66.00;;;;;;4881849;29;20047;-80
2022/08/17 02:31:29;;;;;;;5.63;4.63;;;18.80;65.90;;;;;;4881659;29;20392;-80
2022/08/17 02:33:55;;;;;;;7.95;4.55;;;18.80;65.90;;;;;;4881670;29;20495;-80
2022/08/17 02:36:21;;;;;;;6.65;4.53;;;18.80;65.80;;;;;;4881675;29;20037;-80
2022/08/17 02:38:46;;;;;;;6.07;4.30;;;18.70;65.50;;;;;;4881539;29;20067;-81
2022/08/17 02:41:12;;;;;;;5.43;4.70;;;18.70;65.50;;;;;;4881595;29;20049;-78
2022/08/17 02:43:38;;;;;;;5.13;4.22;;;18.60;65.60;;;;;;4881267;29;20128;-79
2022/08/17 02:46:03;;;;;;;6.20;5.45;;;18.60;65.90;;;;;;4881495;29;20480;-79
2022/08/17 02:48:29;;;;;;;5.97;4.15;;;18.60;66.70;;;;;;4881409;29;20062;-79
2022/08/17 02:50:55;;;;;;;4.82;4.28;;;18.50;66.80;;;;;;4881498;29;20036;-79
2022/08/17 02:53:21;;;;;;;7.57;4.85;;;18.60;67.40;;;;;;4881178;29;20033;-80
2022/08/17 02:55:46;;;;;;;5.55;4.15;;;18.80;66.20;;;;;;4881361;29;20033;-80
2022/08/17 02:58:12;;;;;;;6.82;4.95;;;18.80;66.00;;;;;;4881107;29;20081;-80
2022/08/17 03:00:45;;;;;;;4.85;4.43;;;18.90;65.60;;;;;;4881281;29;20025;-80
2022/08/17 03:03:12;;;;;;;6.03;4.35;;;19.00;65.20;;;;;;4881143;29;20029;-80
2022/08/17 03:05:38;;;;;;;5.28;4.78;;;19.00;65.10;;;;;;4879840;29;20056;-80
2022/08/17 03:08:05;;;;;;;4.55;4.15;;;19.10;64.90;;;;;;4880698;29;20025;-78
2022/08/17 03:10:31;;;;;;;8.13;5.00;;;19.10;64.70;;;;;;4881044;29;20036;-78
2022/08/17 03:12:57;;;;;;;6.25;5.05;;;19.10;65.00;;;;;;4880987;29;20031;-79
2022/08/17 03:15:26;;;;;;;7.03;4.70;;;19.00;65.20;;;;;;4880898;29;20380;-79
2022/08/17 03:17:53;;;;;;;5.10;4.40;;;18.90;65.50;;;;;;4880943;29;20031;-79
2022/08/17 03:20:20;;;;;;;7.13;4.68;;;18.70;65.70;;;;;;4880948;29;20396;-79
2022/08/17 03:22:48;;;;;;;5.47;4.82;;;18.70;66.20;;;;;;4880955;29;20029;-79
2022/08/17 03:25:16;;;;;;;7.60;4.95;;;18.60;66.80;;;;;;4880866;29;20039;-79
2022/08/17 03:27:42;;;;;;;7.03;4.65;;;18.50;67.00;;;;;;4880707;29;20543;-81
2022/08/17 03:30:09;;;;;;;5.10;4.60;;;18.50;67.00;;;;;;4880810;29;20033;-81
2022/08/17 03:32:44;;;;;;;5.15;4.38;;;18.50;67.80;;;;;;4880888;29;20025;-81
2022/08/17 03:35:12;;;;;;;5.07;4.57;;;18.50;67.00;;;;;;4880759;29;20029;-78
2022/08/17 03:37:38;;;;;;;8.65;4.93;;;18.50;67.50;;;;;;4880592;29;20033;-78
2022/08/17 03:40:06;;;;;;;5.63;4.30;;;18.40;67.60;;;;;;4880665;29;20093;-79
2022/08/17 03:42:33;;;;;;;6.28;4.47;;;18.40;67.60;;;;;;4880522;29;20021;-80
2022/08/17 03:45:00;;;;;;;5.93;4.57;;;18.50;67.30;;;;;;4880301;29;20060;-79
2022/08/17 03:58:12;;;;;;;7.30;5.03;;;18.30;67.40;;;;;;4880718;29;20056;-79
2022/08/17 04:00:41;;;;;;;7.40;4.50;;;18.20;67.40;;;;;;4889936;29;20017;-81
2022/08/17 04:03:06;;;;;;;5.05;4.53;;;18.30;67.40;;;;;;4901641;29;20029;-79
2022/08/17 04:05:32;;;;;;;6.35;4.30;;;18.30;67.50;;;;;;4901541;29;20053;-81
2022/08/17 04:07:57;;;;;;;7.18;5.15;;;18.30;67.50;;;;;;4892052;29;20064;-82
2022/08/17 04:10:23;;;;;;;7.00;5.30;;;18.30;67.60;;;;;;4880479;29;20104;-81
2022/08/17 04:12:54;;;;;;;7.20;4.60;;;18.30;67.70;;;;;;4910031;29;20060;-80
2022/08/17 04:15:21;;;;;;;6.45;4.78;;;18.30;67.80;;;;;;4880270;29;20488;-80
2022/08/17 04:17:47;;;;;;;5.22;4.72;;;18.30;67.60;;;;;;4878737;29;20040;-79
2022/08/17 04:20:14;;;;;;;6.60;4.90;;;18.30;67.70;;;;;;4879478;29;20037;-79
2022/08/17 04:23:13;;;;;;;8.70;4.47;;;18.30;67.50;;;;;;4879810;29;20392;-79
2022/08/17 04:25:43;;;;;;;8.75;4.97;;;18.40;67.30;;;;;;4879716;29;20480;-79
2022/08/17 04:28:09;;;;;;;7.93;5.03;;;18.40;67.10;;;;;;4879705;29;20071;-79
2022/08/17 04:30:36;;;;;;;4.75;4.18;;;18.50;67.20;;;;;;4878411;29;20052;-80
2022/08/17 04:33:12;;;;;;;7.45;4.47;;;18.50;67.50;;;;;;4879733;29;20134;-78
2022/08/17 04:35:41;;;;;;;5.65;4.60;;;18.50;67.40;;;;;;4879644;29;20029;-78
2022/08/17 04:38:09;;;;;;;8.75;4.75;;;18.60;67.30;;;;;;4879466;29;20059;-80
2022/08/17 04:43:22;;;;;;;6.10;4.63;;;18.50;67.30;;;;;;4879439;29;20128;-78
2022/08/17 04:45:51;;;;;;;6.60;5.00;;;18.60;67.30;;;;;;4879735;29;20031;-78
2022/08/17 04:48:16;;;;;;;8.77;5.43;;;18.60;67.20;;;;;;4879458;29;20031;-78
2022/08/17 04:50:47;;;;;;;6.25;4.75;;;18.70;67.00;;;;;;4877864;29;20061;-77
2022/08/17 04:53:14;;;;;;;7.15;4.80;;;18.70;67.00;;;;;;4879378;29;20081;-77
2022/08/17 04:55:40;;;;;;;5.38;4.60;;;18.70;67.10;;;;;;4879242;29;20029;-77
2022/08/17 04:58:07;;;;;;;6.13;5.13;;;18.70;67.30;;;;;;4879706;29;20381;-76
2022/08/17 05:00:34;;;;;;;5.00;4.55;;;18.70;67.10;;;;;;4879387;29;20062;-77
2022/08/17 05:03:00;;;;;;;5.43;4.80;;;18.60;67.20;;;;;;4879120;29;20475;-76
2022/08/17 05:05:29;;;;;;;6.93;4.75;;;18.60;67.10;;;;;;4879201;29;20681;-77
2022/08/17 05:07:58;;;;;;;6.82;4.70;;;18.70;67.20;;;;;;4879290;29;20097;-77
2022/08/17 05:10:26;;;;;;;7.18;5.07;;;18.80;67.00;;;;;;4879105;29;20029;-77
2022/08/17 05:13:04;;;;;;;7.53;4.75;;;18.90;67.10;;;;;;4878967;29;20033;-77
2022/08/17 05:15:30;;;;;;;8.02;5.00;;;19.00;66.30;;;;;;4878921;29;20033;-77
2022/08/17 05:17:56;;;;;;;4.70;4.18;;;19.20;65.80;;;;;;4878380;29;20040;-78
2022/08/17 05:20:22;;;;;;;5.78;4.50;;;19.30;65.60;;;;;;4879105;29;20036;-79
2022/08/17 05:22:50;;;;;;;5.35;4.22;;;19.40;65.10;;;;;;4879004;29;20108;-79
2022/08/17 05:25:25;;;;;;;6.70;4.18;;;19.60;64.40;;;;;;4878893;29;20087;-78
2022/08/17 05:27:52;;;;;;;8.23;4.18;;;19.70;64.20;;;;;;4878972;29;20037;-79
2022/08/17 05:30:17;;;;;;;6.10;4.28;;;19.80;63.70;;;;;;4879111;29;20518;-79
2022/08/17 05:32:52;;;;;;;5.45;4.55;;;19.90;63.60;;;;;;4882634;29;20060;-78
2022/08/17 05:35:18;;;;;;;7.55;5.10;;;19.90;63.30;;;;;;4882822;29;20039;-76
2022/08/17 05:37:44;;;;;;;7.88;4.95;;;20.00;63.10;;;;;;4885552;29;20044;-78
2022/08/17 05:40:10;;;;;;;23.70;7.72;;;20.10;64.10;;;;;;4885585;29;20036;-78
2022/08/17 05:42:35;;;;;;;46.15;10.70;;;20.10;63.30;;;;;;4881075;29;20036;-84
2022/08/17 05:45:01;;;;;;;35.15;8.60;;;20.20;62.90;;;;;;4882559;29;20128;-79
2022/08/17 05:47:27;;;;;;;19.23;7.47;;;20.10;63.10;;;;;;4882380;29;20536;-80
2022/08/17 05:49:53;;;;;;;27.00;7.47;;;20.10;63.00;;;;;;4882447;29;20022;-80
2022/08/17 05:52:44;;;;;;;24.63;6.88;;;20.10;63.10;;;;;;4882271;29;20400;-77
2022/08/17 05:55:28;;;;;;;17.02;6.22;;;20.10;63.20;;;;;;4882741;29;20052;-78
2022/08/17 05:57:53;;;;;;;11.48;5.05;;;20.20;62.50;;;;;;4882352;29;20035;-78
2022/08/17 06:00:54;;;;;;;8.77;5.35;;;20.40;62.10;;;;;;4880899;29;20430;-80
2022/08/17 06:03:38;;;;;;;26.30;8.23;;;20.60;61.50;;;;;;4870879;29;20049;-83
2022/08/17 06:06:46;;;;;;;13.57;5.18;;;20.70;61.60;;;;;;4882108;29;20064;-76
2022/08/17 06:09:42;;;;;;;7.68;4.57;;;20.80;61.30;;;;;;4882322;29;20029;-82
2022/08/17 06:12:31;;;;;;;6.85;4.57;;;20.80;61.50;;;;;;4882020;29;20040;-80
2022/08/17 06:15:24;;;;;;;12.35;4.82;;;20.80;61.70;;;;;;4882163;29;20040;-79
2022/08/17 06:17:58;;;;;;;6.90;4.85;;;20.80;61.80;;;;;;4881984;29;20025;-81
2022/08/17 06:20:26;;;;;;;8.27;5.78;;;20.90;61.90;;;;;;4880708;29;20464;-81
2022/08/17 06:22:58;;;;;;;5.75;5.10;;;21.00;61.50;;;;;;4881894;29;20107;-81
2022/08/17 06:25:44;;;;;;;7.18;4.82;;;21.10;61.60;;;;;;4881906;29;20033;-81
2022/08/17 06:28:13;;;;;;;;;;;21.30;60.70;;;;;;4882165;29;20029;-80
2022/08/17 06:30:48;;;;;;;6.22;5.00;;;21.40;60.60;;;;;;4882476;29;19912;-81
2022/08/17 06:33:31;;;;;;;;;;;21.50;61.00;;;;;;4882284;29;20037;-81
2022/08/17 06:36:14;;;;;;;5.80;5.18;;;21.70;61.10;;;;;;4881982;29;19908;-82
2022/08/17 06:39:34;;;;;;;8.07;5.03;;;21.70;61.20;;;;;;4881820;29;20431;-81
2022/08/17 06:42:21;;;;;;;7.32;4.55;;;21.70;60.90;;;;;;4886907;29;20037;-80
2022/08/17 06:44:56;;;;;;;7.57;4.80;;;21.80;60.40;;;;;;4885300;29;20072;-79
2022/08/17 06:47:33;;;;;;;5.78;4.25;;;21.90;59.90;;;;;;4885703;29;20037;-80
2022/08/17 06:50:16;;;;;;;5.25;4.35;;;22.10;59.30;;;;;;4883938;29;20093;-80
2022/08/17 06:52:54;;;;;;;5.93;4.38;;;22.20;58.90;;;;;;4881655;29;20449;-80
2022/08/17 06:55:28;;;;;;;6.88;4.22;;;22.30;58.40;;;;;;4879960;29;20057;-81
2022/08/17 06:58:02;;;;;;;8.93;4.38;;;22.40;57.10;;;;;;4881227;29;20025;-80
2022/08/17 07:00:34;;;;;;;6.15;4.95;;;22.60;56.10;;;;;;4881213;29;20033;-81
2022/08/17 07:03:23;;;;;;;5.97;4.70;;;22.60;55.50;;;;;;4881164;29;20059;-80
2022/08/17 07:05:57;;;;;;;6.80;4.63;;;22.80;54.90;;;;;;4880725;29;20127;-78
2022/08/17 07:08:36;;;;;;;4.63;4.13;;;22.90;54.50;;;;;;4880699;29;20116;-80
2022/08/17 07:11:24;;;;;;;6.00;3.88;;;23.10;53.50;;;;;;4880471;29;20025;-81
2022/08/17 07:14:23;;;;;;;5.03;4.50;;;23.10;53.30;;;;;;4880546;29;20040;-81
2022/08/17 07:16:54;;;;;;;6.93;4.47;;;23.10;52.60;;;;;;4880665;29;20032;-81
2022/08/17 07:19:30;;;;;;;6.18;4.70;;;23.00;52.80;;;;;;4880709;29;20132;-81
2022/08/17 07:22:06;;;;;;;7.15;5.00;;;23.00;53.10;;;;;;4880895;29;20052;-81
2022/08/17 07:24:58;;;;;;;7.55;4.43;;;22.80;53.30;;;;;;4880670;29;20068;-81
2022/08/17 07:27:31;;;;;;;5.65;4.10;;;22.80;53.20;;;;;;4880633;29;20025;-81
2022/08/17 07:30:05;;;;;;;9.30;4.38;;;22.60;53.90;;;;;;4880597;29;20032;-80
2022/08/17 07:32:44;;;;;;;6.22;4.30;;;22.40;54.30;;;;;;4880559;29;20028;-81
2022/08/17 07:35:12;;;;;;;6.53;4.30;;;22.50;54.40;;;;;;4881476;29;20029;-83
2022/08/17 07:37:41;;;;;;;11.20;7.47;;;22.40;54.60;;;;;;4880468;29;20106;-80
2022/08/17 07:40:20;;;;;;;5.50;4.60;;;22.40;54.60;;;;;;4880499;29;20037;-81
2022/08/17 07:43:08;;;;;;;6.65;4.50;;;22.40;54.60;;;;;;4880112;29;20392;-82
2022/08/17 07:48:24;;;;;;;7.18;4.13;;;22.40;54.50;;;;;;4880300;29;20044;-80
2022/08/17 07:50:51;;;;;;;5.65;4.57;;;22.40;54.60;;;;;;4878484;29;20100;-81
2022/08/17 07:53:23;;;;;;;4.72;3.80;;;22.40;54.60;;;;;;4879792;29;20039;-80
2022/08/17 07:55:51;;;;;;;6.10;4.63;;;22.50;54.60;;;;;;4878141;29;20033;-80
2022/08/17 07:58:20;;;;;;;5.22;3.92;;;22.50;54.40;;;;;;4879724;29;20072;-80
2022/08/17 08:01:06;;;;;;;4.78;4.00;;;22.60;54.20;;;;;;4879213;29;20026;-78
2022/08/17 08:03:32;;;;;;;5.10;4.43;;;22.60;54.00;;;;;;4878724;29;20124;-82
2022/08/17 08:06:00;;;;;;;4.57;4.10;;;22.70;54.00;;;;;;4879909;29;20036;-81
2022/08/17 08:08:36;;;;;;;5.70;3.65;;;22.70;53.80;;;;;;4879897;29;20029;-80
2022/08/17 08:11:09;;;;;;;5.45;3.97;;;22.70;54.00;;;;;;4878987;29;20124;-80
2022/08/17 08:13:42;;;;;;;4.45;4.05;;;22.70;53.70;;;;;;4880074;29;20032;-81
2022/08/17 08:16:12;;;;;;;4.30;3.85;;;22.70;53.50;;;;;;4879989;29;20071;-81
2022/08/17 08:18:44;;;;;;;4.85;3.80;;;22.70;53.60;;;;;;4879606;29;20174;-80
2022/08/17 08:21:27;;;;;;;5.45;4.13;;;22.70;53.50;;;;;;4878456;29;20121;-81
2022/08/17 08:23:59;;;;;;;4.55;3.67;;;22.80;53.40;;;;;;4879744;29;20036;-80
2022/08/17 08:26:39;;;;;;;4.32;3.90;;;22.90;53.30;;;;;;4879640;29;20032;-80
2022/08/17 08:29:21;;;;;;;3.95;3.50;;;23.10;53.00;;;;;;4880012;29;20025;-81
2022/08/17 08:31:57;;;;;;;3.40;3.10;;;23.30;51.90;;;;;;4879581;29;20037;-83
2022/08/17 08:34:35;;;;;;;3.40;3.10;;;23.50;51.10;;;;;;4879553;29;20025;-84
2022/08/17 08:37:08;;;;;;;4.13;2.97;;;23.70;50.30;;;;;;4879838;29;20048;-83
2022/08/17 08:40:29;;;;;;;3.58;2.85;;;23.90;49.30;;;;;;4879366;29;20123;-82
2022/08/17 08:43:07;;;;;;;2.90;2.60;;;23.80;48.80;;;;;;4858182;29;20068;-82
2022/08/17 08:45:44;;;;;;;4.93;2.75;;;23.90;48.70;;;;;;4879814;29;20041;-82
2022/08/17 08:48:20;;;;;;;7.30;3.13;;;24.10;48.60;;;;;;4880159;29;20028;-83
2022/08/17 08:50:55;;;;;;;3.17;2.45;;;24.20;48.30;;;;;;4879276;29;20472;-83
2022/08/17 08:53:34;;;;;;;3.47;2.80;;;24.30;47.70;;;;;;4880911;29;20456;-82
2022/08/17 08:56:15;;;;;;;2.67;2.47;;;24.40;47.50;;;;;;4880775;29;20029;-85
2022/08/17 08:59:20;;;;;;;2.55;2.35;;;24.40;47.40;;;;;;4879528;29;20433;-83
2022/08/17 09:02:10;;;;;;;2.83;2.53;;;24.50;47.30;;;;;;4879185;29;20025;-83
2022/08/17 09:04:38;;;;;;;3.00;2.30;;;24.50;47.00;;;;;;4879146;29;20126;-80
2022/08/17 09:07:21;;;;;;;3.45;2.53;;;24.50;47.00;;;;;;4878448;29;20021;-82
2022/08/17 09:10:02;;;;;;;2.88;2.20;;;24.50;46.70;;;;;;4878891;29;20500;-82
2022/08/17 09:12:47;;;;;;;2.92;2.33;;;24.60;46.60;;;;;;4877802;29;20476;-83
2022/08/17 09:15:27;;;;;;;2.35;2.13;;;24.60;46.10;;;;;;4879060;29;20093;-82
2022/08/17 09:18:09;;;;;;;3.20;2.33;;;24.70;45.90;;;;;;4878916;29;20523;-82
2022/08/17 09:21:04;;;;;;;2.78;2.15;;;24.70;45.90;;;;;;4879030;29;20040;-82
2022/08/17 09:24:01;;;;;;;3.38;2.15;;;24.80;45.80;;;;;;4878831;29;20025;-83
2022/08/17 09:26:38;;;;;;;2.67;2.33;;;25.00;45.50;;;;;;4878859;29;20025;-82
2022/08/17 09:29:12;;;;;;;2.88;2.67;;;25.10;44.70;;;;;;4879032;29;20085;-81
2022/08/17 09:32:00;;;;;;;2.83;2.50;;;25.00;44.10;;;;;;4878849;29;20025;-80
2022/08/17 09:34:40;;;;;;;3.65;2.33;;;25.00;44.10;;;;;;4878838;29;20496;-82
2022/08/17 09:37:58;;;;;;;2.63;2.42;;;25.00;44.40;;;;;;4878387;29;20086;-81
2022/08/17 09:40:39;;;;;;;2.78;2.47;;;25.10;44.50;;;;;;4839606;29;20034;-81
2022/08/17 09:43:45;;;;;;;4.10;2.28;;;25.10;44.40;;;;;;4839180;29;20049;-82
2022/08/17 09:46:20;;;;;;;2.50;2.30;;;25.10;43.20;;;;;;4815835;29;20099;-82
2022/08/17 09:49:00;;;;;;;3.65;2.67;;;25.30;43.20;;;;;;4821203;29;20042;-82
2022/08/17 09:51:34;;;;;;;2.83;2.13;;;25.20;43.40;;;;;;4858172;29;20041;-79
2022/08/17 09:54:01;;;;;;;5.97;2.50;;;25.30;44.10;;;;;;4878369;29;20085;-83
2022/08/17 09:56:42;;;;;;;2.75;2.55;;;25.30;42.70;;;;;;4878330;29;20033;-74
2022/08/17 09:59:31;;;;;;;2.63;2.38;;;25.30;42.40;;;;;;4878198;29;20063;-80
2022/08/17 10:02:28;;;;;;;2.88;2.47;;;25.30;42.80;;;;;;4878017;29;20029;-75
2022/08/17 10:05:02;;;;;;;2.30;1.98;;;25.70;41.90;;;;;;4878323;29;20507;-76
2022/08/17 10:07:30;;;;;;;4.60;2.70;;;26.10;40.60;;;;;;4876473;29;20039;-75
2022/08/17 10:10:11;;;;;;;3.63;2.58;;;26.30;39.90;;;;;;4877891;29;20070;-76
2022/08/17 10:12:55;;;;;;;2.70;2.50;;;26.40;39.50;;;;;;4878120;29;20025;-76
2022/08/17 10:15:35;;;;;;;7.47;3.20;;;26.30;39.80;;;;;;4876571;29;20052;-77
2022/08/17 10:18:16;;;;;;;3.97;2.53;;;26.20;43.60;;;;;;4879249;29;20088;-81
2022/08/17 10:26:35;;;;;;;3.33;2.78;;;25.80;43.00;;;;;;4881743;29;20129;-82
2022/08/17 10:29:15;;;;;;;6.00;3.13;;;26.20;42.80;;;;;;4881474;29;20345;-82
2022/08/17 10:31:49;;;;;;;3.60;2.85;;;26.60;42.00;;;;;;4881591;29;20024;-81
2022/08/17 10:34:31;;;;;;;2.40;2.20;;;27.10;40.00;;;;;;4881689;29;20064;-82
2022/08/17 10:37:16;;;;;;;2.65;2.30;;;27.50;38.30;;;;;;4881400;29;20265;-83
2022/08/17 10:39:45;;;;;;;5.90;2.75;;;28.10;37.90;;;;;;4881430;29;20073;-82
2022/08/17 10:42:27;;;;;;;4.72;2.40;;;28.30;36.70;;;;;;4881399;29;20033;-82
2022/08/17 10:45:18;;;;;;;3.25;2.58;;;28.50;36.40;;;;;;4881669;29;20071;-82
2022/08/17 10:48:04;;;;;;;3.35;2.42;;;28.80;35.50;;;;;;4881100;29;20085;-82
2022/08/17 10:50:57;;;;;;;4.35;2.70;;;28.90;34.40;;;;;;4874666;29;20039;-81
2022/08/17 10:53:31;;;;;;;3.70;2.30;;;29.00;34.60;;;;;;4881336;29;20098;-79
2022/08/17 10:56:12;;;;;;;3.03;2.40;;;29.00;34.00;;;;;;4880023;29;20036;-79
2022/08/17 10:58:48;;;;;;;4.95;2.42;;;28.90;33.70;;;;;;4880880;29;20037;-79
2022/08/17 11:01:15;;;;;;;4.28;2.65;;;28.40;34.30;;;;;;4881194;29;20029;-80
2022/08/17 11:03:53;;;;;;;5.38;2.88;;;27.60;35.10;;;;;;4880975;29;20040;-81
2022/08/17 11:06:21;;;;;;;3.72;2.60;;;27.10;36.40;;;;;;4880981;29;20036;-79
2022/08/17 11:09:00;;;;;;;4.60;2.55;;;26.70;37.10;;;;;;4880972;29;20361;-78
2022/08/17 11:11:46;;;;;;;5.60;3.40;;;26.40;38.40;;;;;;4881043;29;20100;-77
2022/08/17 11:14:33;;;;;;;4.90;3.20;;;25.90;41.70;;;;;;4881029;29;20365;-77
2022/08/17 11:17:31;;;;;;;9.15;3.40;;;25.60;43.30;;;;;;4882220;29;20040;-80
2022/08/17 11:20:22;;;;;;;5.18;3.80;;;25.20;46.00;;;;;;4881151;29;20037;-78
2022/08/17 11:22:47;;;;;;;6.68;3.38;;;24.80;46.30;;;;;;4881375;29;20049;-76
2022/08/17 11:25:17;;;;;;;4.57;3.33;;;24.60;46.60;;;;;;4881318;29;20056;-81
2022/08/17 11:27:52;;;;;;;3.40;3.10;;;24.70;47.40;;;;;;4881359;29;20027;-80
2022/08/17 11:30:43;;;;;;;4.63;3.47;;;24.90;46.70;;;;;;4880528;29;20433;-76
2022/08/17 11:33:27;;;;;;;5.68;3.30;;;25.50;46.00;;;;;;4879234;29;20029;-74
2022/08/17 11:36:00;;;;;;;5.30;3.00;;;26.30;44.30;;;;;;4880204;29;20100;-74
2022/08/17 11:38:56;;;;;;;3.15;2.72;;;26.80;41.20;;;;;;4880251;29;20029;-74
2022/08/17 11:41:26;;;;;;;;;;;27.10;38.60;;;;;;4880780;29;20032;-75
2022/08/17 11:44:02;;;;;;;3.50;2.83;;;27.50;37.10;;;;;;4879653;29;19998;-74
2022/08/17 11:52:45;;;;;;;3.78;2.75;;;29.00;33.20;;;;;;4878806;29;20027;-76
2022/08/17 11:55:53;;;;;;;6.18;3.00;;;29.40;33.80;;;;;;4880134;29;20025;-75
2022/08/17 11:58:28;;;;;;;4.32;2.78;;;29.70;33.60;;;;;;4879695;29;20040;-75
2022/08/17 12:01:02;;;;;;;4.03;3.28;;;30.10;32.40;;;;;;4879931;29;20484;-75
2022/08/17 12:03:30;;;;;;;3.28;2.97;;;30.30;30.50;;;;;;4880094;29;20495;-76
2022/08/17 12:06:09;;;;;;;3.95;2.90;;;30.50;29.50;;;;;;4879679;29;20488;-76
2022/08/17 12:08:42;;;;;;;4.93;2.50;;;30.70;29.30;;;;;;4879563;29;20033;-74
2022/08/17 12:11:18;;;;;;;2.80;2.60;;;30.90;28.00;;;;;;4879677;29;20029;-74
2022/08/17 12:13:48;;;;;;;3.75;2.85;;;31.10;26.70;;;;;;4879968;29;20545;-74
2022/08/17 12:16:16;;;;;;;4.00;2.65;;;31.20;25.50;;;;;;4879699;29;20037;-74
2022/08/17 12:18:50;;;;;;;3.13;2.50;;;31.40;26.00;;;;;;4879653;29;20037;-76
2022/08/17 12:21:47;;;;;;;2.90;2.58;;;31.10;25.10;;;;;;4879336;29;20080;-74
2022/08/17 12:24:44;;;;;;;4.35;2.58;;;31.10;25.30;;;;;;4879403;29;20431;-75
2022/08/17 12:27:11;;;;;;;4.22;3.10;;;31.20;26.10;;;;;;4879542;29;20093;-75
2022/08/17 12:29:41;;;;;;;4.57;3.03;;;31.30;25.50;;;;;;4879520;29;20029;-75
2022/08/17 12:32:16;;;;;;;4.78;3.35;;;31.50;25.50;;;;;;4879493;29;20040;-75
2022/08/17 12:34:43;;;;;;;;;;;31.40;25.60;;;;;;4879833;29;20120;-75
2022/08/17 12:37:23;;;;;;;4.90;3.10;;;31.20;26.10;;;;;;4879496;29;19958;-75
2022/08/17 12:39:57;;;;;;;4.72;2.90;;;30.90;26.20;;;;;;4879279;29;20124;-75
2022/08/17 12:42:31;;;;;;;3.78;2.92;;;30.80;27.00;;;;;;4879140;29;20025;-74
2022/08/17 12:44:57;;;;;;;6.70;3.38;;;31.00;27.20;;;;;;4879324;29;20140;-75
2022/08/17 12:47:23;;;;;;;4.43;2.60;;;31.20;25.70;;;;;;4879139;29;20066;-75
2022/08/17 12:49:51;;;;;;;3.72;3.03;;;31.40;25.60;;;;;;4882926;29;20029;-75
2022/08/17 12:52:31;;;;;;;3.85;2.92;;;31.80;25.00;;;;;;4879212;29;20495;-74
2022/08/17 12:55:05;;;;;;;6.90;3.00;;;32.10;24.50;;;;;;4879409;29;20425;-73
2022/08/17 12:57:37;;;;;;;4.47;2.58;;;31.80;23.10;;;;;;4879151;29;20433;-76
2022/08/17 13:00:31;;;;;;;4.13;2.65;;;31.50;23.80;;;;;;4878799;29;20045;-75
2022/08/17 13:03:01;;;;;;;3.00;2.70;;;31.40;24.30;;;;;;4878897;29;20029;-76
2022/08/17 13:05:30;;;;;;;6.78;2.90;;;31.40;24.10;;;;;;4878988;29;20090;-77
2022/08/17 13:07:58;;;;;;;5.80;3.00;;;31.60;24.30;;;;;;4878876;29;20142;-82
2022/08/17 13:10:35;;;;;;;3.30;2.80;;;31.60;24.20;;;;;;4878745;29;20476;-75
2022/08/17 13:13:04;;;;;;;4.20;3.00;;;31.90;24.30;;;;;;4878936;29;20040;-76
2022/08/17 13:15:49;;;;;;;3.65;3.03;;;32.30;24.00;;;;;;4877769;29;20456;-76
2022/08/17 13:18:37;;;;;;;3.97;3.08;;;31.60;23.60;;;;;;4878951;29;20046;-75
2022/08/17 13:21:02;;;;;;;3.80;3.42;;;31.70;23.80;;;;;;4859458;29;20041;-76
2022/08/17 13:23:30;;;;;;;4.75;2.97;;;31.60;24.00;;;;;;4878948;29;20029;-76
2022/08/17 13:26:02;;;;;;;4.63;3.25;;;31.80;23.30;;;;;;4876177;29;20039;-77
2022/08/17 13:28:28;;;;;;;3.97;2.80;;;31.60;23.70;;;;;;4878320;29;20025;-75
2022/08/17 13:31:28;;;;;;;4.47;3.13;;;31.80;23.50;;;;;;4878777;29;20033;-74
2022/08/17 13:34:22;;;;;;;3.85;2.88;;;31.90;22.90;;;;;;4878703;29;20021;-74
2022/08/17 13:36:50;;;;;;;8.20;3.20;;;31.90;23.30;;;;;;4878614;29;20076;-75
2022/08/17 13:39:20;;;;;;;3.30;3.00;;;32.30;23.00;;;;;;4878439;29;20044;-75
2022/08/17 13:41:48;;;;;;;5.05;2.90;;;32.40;23.00;;;;;;4878317;29;20029;-77
2022/08/17 13:44:36;;;;;;;3.78;2.72;;;32.60;23.30;;;;;;4878355;29;20049;-75
2022/08/17 13:47:13;;;;;;;4.70;2.80;;;32.90;22.90;;;;;;4878740;29;20025;-74
2022/08/17 13:49:39;;;;;;;4.93;3.22;;;33.20;22.30;;;;;;4878580;29;20021;-75
2022/08/17 13:52:05;;;;;;;4.22;3.13;;;33.30;21.30;;;;;;4877423;29;20365;-77